createdAt,value
2023-02-06T00:00:01.749Z,89
2023-02-06T00:30:04.702Z,87
2023-02-06T01:00:26.231Z,88
2023-02-06T01:30:19.505Z,86
2023-02-06T02:00:19.887Z,88
2023-02-06T02:30:04.378Z,87
2023-02-06T03:00:04.746Z,89
2023-02-06T03:30:23.151Z,88
2023-02-06T04:00:25.988Z,89
2023-02-06T04:30:16.708Z,87
2023-02-06T05:00:20.389Z,88
2023-02-06T05:30:01.640Z,87
2023-02-06T06:00:05.498Z,87
2023-02-06T06:30:16.352Z,87
2023-02-06T07:00:29.425Z,85
2023-02-06T07:30:10.963Z,86
2023-02-06T08:30:22.284Z,83
2023-02-06T09:00:04.982Z,83
2023-02-06T09:30:18.401Z,83
2023-02-06T10:00:21.927Z,83
2023-02-06T10:30:02.793Z,82
2023-02-06T11:00:16.879Z,82
2023-02-06T11:30:07.889Z,79
2023-02-06T12:00:28.780Z,78
2023-02-06T12:30:13.857Z,80
2023-02-06T13:00:19.159Z,77
2023-02-06T13:30:02.813Z,77
2023-02-06T14:00:04.072Z,75
2023-02-06T14:30:17.647Z,77
2023-02-06T15:00:08.581Z,76
2023-02-06T15:30:12.315Z,78
2023-02-06T16:00:04.162Z,76
2023-02-06T16:30:25.017Z,76
2023-02-06T17:00:08.176Z,76
2023-02-06T17:30:16.060Z,76
2023-02-06T18:00:28.544Z,77
2023-02-06T18:30:10.366Z,78
2023-02-06T19:00:01.475Z,78
2023-02-06T19:30:05.208Z,78
2023-02-06T20:00:27.286Z,80
2023-02-06T20:30:08.673Z,83
2023-02-06T21:00:20.556Z,83
2023-02-06T21:30:06.290Z,81
2023-02-06T22:30:26.298Z,81
2023-02-06T23:00:30.136Z,81
2023-02-06T23:30:12.065Z,81
